Alfredo Vasconcelos, Brazil
Current Conditions -  °F | °C
As of 2:15 PM on Saturday 20 Dec 2014 (Local Time) from SBBQ Reporting Station
Thunderstorm Thunderstorm  
Wind Chill: 79°   Ceiling: 3000
Heat Index: 81°   Visibility: 3mi
Dew Point: 66°   Wind: 12mph
Humidity: 65%   Direction: 270°W
Pressure: 30.06"   Gusts: NA
Location:  21.15°S, 43.78°W
Report Text: SBBQ 201615Z 27010KT 5000 TS HZ BKN030 FEW040CB 26/19 Q1018
Loading
Personal Weather Stations






























Interactive Weather Map New forecast layout! Learn more

10-Day Weather Forecast

Advertisements
Track Severe Weather on mobile